Time;durP1;ratioP1;P1;durP2;ratioP2;P2;SDS_P1;SDS_P2;PMS_P1;PMS_P2;Temp;Humidity;BMP_temperature;BMP_pressure;BME280_temperature;BME280_humidity;BME280_pressure;Samples;Min_cycle;Max_cycle;Signal;HPM_P1;HPM_P2
2022/03/14 00:01:55;;;;;;;19.77;7.78;;;9.20;99.80;;;;;;5014015;28;20173;-75
2022/03/14 00:04:22;;;;;;;18.35;7.88;;;9.20;99.10;;;;;;5011804;28;20422;-75
2022/03/14 00:06:48;;;;;;;17.67;7.60;;;9.20;98.80;;;;;;5012645;28;20057;-76
2022/03/14 00:09:17;;;;;;;19.48;7.20;;;9.30;99.30;;;;;;5013550;28;20049;-75
2022/03/14 00:11:44;;;;;;;17.83;7.30;;;9.40;99.90;;;;;;5012257;28;20046;-75
2022/03/14 00:14:10;;;;;;;;;;;9.40;99.90;;;;;;5011895;28;20045;-76
2022/03/14 00:16:40;;;;;;;14.73;6.53;;;9.50;99.90;;;;;;5011943;28;19951;-75
2022/03/14 00:19:06;;;;;;;13.07;5.80;;;9.50;99.90;;;;;;5011760;28;20205;-78
2022/03/14 00:21:35;;;;;;;14.40;5.82;;;9.60;99.90;;;;;;5011607;28;20100;-75
2022/03/14 00:24:02;;;;;;;11.95;5.35;;;9.60;99.90;;;;;;4995925;28;20508;-75
2022/03/14 00:26:28;;;;;;;13.03;5.23;;;9.60;99.90;;;;;;5028722;28;20046;-75
2022/03/14 00:28:54;;;;;;;13.45;5.68;;;9.60;99.90;;;;;;5013063;28;20289;-75
2022/03/14 00:31:20;;;;;;;12.63;5.40;;;9.70;99.90;;;;;;5011738;28;20053;-76
2022/03/14 00:33:46;;;;;;;13.52;4.68;;;9.70;99.90;;;;;;5028259;28;20041;-76
2022/03/14 00:36:12;;;;;;;11.30;5.07;;;9.70;99.90;;;;;;5012734;28;20060;-75
2022/03/14 00:38:39;;;;;;;11.07;4.57;;;9.70;99.90;;;;;;5011678;28;20155;-76
2022/03/14 00:41:07;;;;;;;10.30;4.20;;;9.80;99.90;;;;;;5011416;28;20053;-78
2022/03/14 00:43:34;;;;;;;11.45;4.72;;;9.80;99.90;;;;;;5012852;28;20112;-76
2022/03/14 00:46:00;;;;;;;11.43;4.15;;;9.80;99.90;;;;;;5012675;28;20124;-76
2022/03/14 00:48:26;;;;;;;10.77;4.80;;;9.80;99.90;;;;;;5012642;28;20042;-74
2022/03/14 00:50:53;;;;;;;19.60;6.23;;;9.80;99.90;;;;;;5012550;28;20054;-75
2022/03/14 00:53:19;;;;;;;15.25;5.05;;;9.90;99.90;;;;;;5011492;28;20471;-74
2022/03/14 00:55:44;;;;;;;13.05;4.82;;;9.90;99.90;;;;;;5011265;28;20042;-74
2022/03/14 00:58:10;;;;;;;12.80;4.70;;;9.90;99.90;;;;;;5011901;28;20054;-75
2022/03/14 01:00:36;;;;;;;12.88;5.03;;;10.00;99.90;;;;;;5011230;28;20085;-74
2022/03/14 01:03:02;;;;;;;12.00;4.93;;;10.00;99.90;;;;;;5016705;28;20137;-75
2022/03/14 01:05:29;;;;;;;11.30;3.90;;;10.00;99.90;;;;;;5017002;28;20050;-76
2022/03/14 01:07:54;;;;;;;11.20;4.45;;;10.00;99.90;;;;;;5017094;28;20060;-75
2022/03/14 01:10:20;;;;;;;11.52;4.18;;;10.00;99.90;;;;;;5031387;28;20417;-76
2022/03/14 01:12:46;;;;;;;11.18;4.97;;;10.00;99.90;;;;;;5016586;28;20046;-75
2022/03/14 01:15:12;;;;;;;11.55;4.63;;;10.00;99.90;;;;;;5015117;28;20049;-76
2022/03/14 01:17:40;;;;;;;10.15;4.47;;;10.00;99.90;;;;;;5015150;28;20046;-75
2022/03/14 01:20:08;;;;;;;10.70;4.30;;;10.00;99.90;;;;;;5014868;28;20457;-76
2022/03/14 01:22:34;;;;;;;9.27;3.88;;;9.90;99.90;;;;;;5016357;28;20057;-75
2022/03/14 01:25:01;;;;;;;16.48;4.75;;;10.00;99.90;;;;;;5031482;28;20390;-76
2022/03/14 01:27:27;;;;;;;9.18;4.18;;;10.00;99.90;;;;;;5014684;28;20038;-75
2022/03/14 01:29:52;;;;;;;11.35;4.05;;;10.00;99.90;;;;;;5016423;28;20232;-75
2022/03/14 01:32:18;;;;;;;16.52;4.78;;;9.90;99.90;;;;;;5016245;28;20129;-76
2022/03/14 01:34:44;;;;;;;12.40;5.28;;;9.90;99.90;;;;;;5014436;28;20049;-75
2022/03/14 01:37:10;;;;;;;10.55;4.82;;;9.90;99.90;;;;;;5014675;28;20137;-76
2022/03/14 01:39:36;;;;;;;13.35;4.43;;;9.90;99.90;;;;;;5016105;28;20142;-74
2022/03/14 01:42:03;;;;;;;13.20;4.95;;;9.90;99.90;;;;;;5014910;28;20120;-75
2022/03/14 01:44:29;;;;;;;12.10;5.07;;;9.90;99.90;;;;;;5015815;28;20054;-76
2022/03/14 01:46:55;;;;;;;11.43;4.43;;;9.90;99.90;;;;;;5016448;28;20123;-75
2022/03/14 01:49:21;;;;;;;10.75;4.35;;;9.80;99.90;;;;;;5014348;28;20550;-74
2022/03/14 01:51:47;;;;;;;13.47;5.20;;;9.90;99.90;;;;;;5015088;28;20073;-75
2022/03/14 01:54:13;;;;;;;12.10;4.65;;;9.80;99.90;;;;;;5030896;28;20072;-76
2022/03/14 01:56:40;;;;;;;12.60;4.72;;;9.80;99.90;;;;;;5015733;28;20052;-74
2022/03/14 01:59:07;;;;;;;11.75;4.68;;;9.80;99.90;;;;;;5013940;28;20081;-78
2022/03/14 02:01:33;;;;;;;16.13;4.72;;;9.80;99.90;;;;;;5014828;28;20056;-76
2022/03/14 02:04:00;;;;;;;11.02;4.93;;;9.80;99.90;;;;;;5030884;28;20128;-75
2022/03/14 02:06:28;;;;;;;11.60;5.07;;;9.80;99.90;;;;;;5015390;28;20053;-75
2022/03/14 02:08:55;;;;;;;13.65;5.15;;;9.80;99.90;;;;;;5015492;28;20050;-75
2022/03/14 02:11:21;;;;;;;13.95;4.65;;;9.80;99.90;;;;;;5014499;28;20064;-75
2022/03/14 02:13:47;;;;;;;10.57;4.68;;;9.80;99.90;;;;;;5013926;28;20045;-75
2022/03/14 02:16:13;;;;;;;13.00;4.90;;;9.90;99.90;;;;;;5030458;28;20517;-77
2022/03/14 02:18:39;;;;;;;12.27;5.45;;;9.90;99.90;;;;;;5013989;28;20085;-75
2022/03/14 02:21:08;;;;;;;11.50;4.65;;;9.90;99.90;;;;;;5015411;28;20136;-76
2022/03/14 02:23:34;;;;;;;13.40;5.07;;;9.90;99.90;;;;;;5014579;28;20085;-76
2022/03/14 02:26:00;;;;;;;10.93;4.55;;;9.90;99.90;;;;;;5013696;28;20076;-75
2022/03/14 02:28:27;;;;;;;9.00;4.20;;;9.80;99.90;;;;;;5014116;28;20045;-77
2022/03/14 02:30:53;;;;;;;10.65;4.55;;;9.90;99.90;;;;;;5030148;28;20129;-76
2022/03/14 02:33:20;;;;;;;10.10;4.67;;;9.90;99.90;;;;;;5013632;28;20049;-76
2022/03/14 02:35:49;;;;;;;11.75;4.65;;;9.90;99.90;;;;;;5014924;28;20296;-76
2022/03/14 02:38:19;;;;;;;11.93;5.00;;;9.90;99.90;;;;;;5013770;28;20061;-78
2022/03/14 02:40:46;;;;;;;10.98;4.65;;;9.90;99.90;;;;;;5015176;28;20046;-76
2022/03/14 02:43:15;;;;;;;12.20;4.30;;;9.90;99.90;;;;;;5014577;28;20065;-77
2022/03/14 02:45:41;;;;;;;13.95;4.38;;;9.90;99.90;;;;;;5015164;28;20050;-76
2022/03/14 02:48:07;;;;;;;9.95;4.53;;;9.90;99.90;;;;;;5030139;28;20038;-77
2022/03/14 02:50:34;;;;;;;9.93;3.97;;;9.90;99.90;;;;;;5013587;28;20097;-74
2022/03/14 02:53:00;;;;;;;13.13;4.55;;;9.90;99.90;;;;;;5029939;28;20082;-74
2022/03/14 02:55:26;;;;;;;10.80;4.72;;;9.90;99.90;;;;;;5013053;28;20560;-74
2022/03/14 02:57:52;;;;;;;10.57;4.65;;;9.90;99.90;;;;;;5013183;28;20076;-75
2022/03/14 03:00:18;;;;;;;10.80;4.75;;;9.90;99.90;;;;;;5013209;28;20050;-77
2022/03/14 03:02:44;;;;;;;10.80;4.80;;;9.80;99.90;;;;;;5013732;28;20049;-76
2022/03/14 03:05:10;;;;;;;11.95;4.82;;;9.80;99.90;;;;;;5014047;28;20540;-75
2022/03/14 03:07:36;;;;;;;11.40;5.13;;;9.90;99.90;;;;;;5014318;28;20435;-75
2022/03/14 03:10:04;;;;;;;9.10;3.70;;;9.80;99.90;;;;;;5014320;28;20041;-74
2022/03/14 03:12:32;;;;;;;11.77;4.00;;;9.80;99.90;;;;;;5013865;28;20049;-75
2022/03/14 03:14:58;;;;;;;9.88;4.28;;;9.80;99.90;;;;;;5012771;28;20056;-75
2022/03/14 03:17:24;;;;;;;9.30;3.97;;;9.80;99.90;;;;;;5029374;28;20071;-75
2022/03/14 03:19:50;;;;;;;9.35;4.07;;;9.80;99.90;;;;;;5014005;28;20046;-76
2022/03/14 03:22:17;;;;;;;12.00;4.28;;;9.90;99.90;;;;;;5029509;28;20064;-75
2022/03/14 03:24:43;;;;;;;9.50;4.15;;;9.80;99.90;;;;;;5011959;28;20081;-76
2022/03/14 03:27:09;;;;;;;10.13;3.90;;;9.80;99.90;;;;;;5013917;28;20088;-75
2022/03/14 03:29:35;;;;;;;9.70;4.05;;;9.80;99.90;;;;;;5012417;28;20555;-75
2022/03/14 03:32:01;;;;;;;7.70;3.40;;;9.90;99.90;;;;;;5012577;28;20501;-75
2022/03/14 03:34:27;;;;;;;12.25;3.78;;;9.80;99.90;;;;;;5013747;28;20049;-76
2022/03/14 03:36:52;;;;;;;9.30;3.63;;;9.80;99.90;;;;;;5012244;28;20054;-75
2022/03/14 03:39:18;;;;;;;7.18;3.63;;;9.80;99.90;;;;;;5012445;28;20053;-75
2022/03/14 03:41:44;;;;;;;9.50;3.88;;;9.80;99.90;;;;;;4996496;28;20034;-75
2022/03/14 03:44:10;;;;;;;8.25;3.55;;;9.80;99.90;;;;;;5029158;28;20544;-75
2022/03/14 03:46:36;;;;;;;8.98;3.70;;;9.70;99.90;;;;;;5012810;28;20049;-75
2022/03/14 03:49:03;;;;;;;9.50;3.90;;;9.70;99.90;;;;;;5012831;28;20136;-75
2022/03/14 03:51:29;;;;;;;8.90;3.47;;;9.70;99.90;;;;;;4997003;28;20092;-75
2022/03/14 03:53:55;;;;;;;8.65;3.67;;;9.70;99.90;;;;;;5012649;28;20085;-75
2022/03/14 03:56:21;;;;;;;9.23;3.85;;;9.80;99.90;;;;;;5012531;28;20128;-74
2022/03/14 03:58:47;;;;;;;9.48;3.50;;;9.80;99.90;;;;;;4996684;28;20061;-75
2022/03/14 04:01:16;;;;;;;8.75;4.00;;;9.80;99.90;;;;;;5013362;28;20053;-75
2022/03/14 04:03:42;;;;;;;10.82;4.28;;;9.80;99.90;;;;;;5012541;28;20049;-74
2022/03/14 04:06:08;;;;;;;10.07;4.03;;;9.80;99.90;;;;;;5013032;28;20053;-74
2022/03/14 04:08:34;;;;;;;12.35;4.47;;;9.80;99.90;;;;;;5012909;28;20049;-74
2022/03/14 04:11:01;;;;;;;9.32;3.95;;;9.70;99.90;;;;;;5012256;28;20483;-74
2022/03/14 04:13:29;;;;;;;8.77;4.00;;;9.60;99.90;;;;;;4979782;28;20050;-75
2022/03/14 04:15:57;;;;;;;10.80;4.45;;;9.70;99.90;;;;;;5011902;28;20132;-75
2022/03/14 04:18:26;;;;;;;9.52;4.18;;;9.70;99.90;;;;;;5012528;28;20053;-75
2022/03/14 04:20:52;;;;;;;11.25;4.68;;;9.70;99.90;;;;;;5012284;28;20185;-75
2022/03/14 04:23:19;;;;;;;11.00;4.05;;;9.70;99.90;;;;;;5012168;28;20115;-75
2022/03/14 04:25:46;;;;;;;12.10;4.60;;;9.70;99.90;;;;;;5028069;28;20085;-75
2022/03/14 04:28:12;;;;;;;12.60;4.30;;;9.80;99.90;;;;;;5012388;28;20063;-74
2022/03/14 04:30:38;;;;;;;9.80;4.53;;;9.70;99.90;;;;;;5028184;28;20402;-75
2022/03/14 04:33:06;;;;;;;14.50;5.20;;;9.70;99.90;;;;;;5028211;28;20053;-75
2022/03/14 04:35:32;;;;;;;;;;;9.70;99.90;;;;;;5011957;28;20465;-78
2022/03/14 04:37:58;;;;;;;9.90;4.45;;;9.70;99.90;;;;;;5013067;28;19925;-75
2022/03/14 04:40:23;;;;;;;10.60;4.43;;;9.60;99.90;;;;;;5011985;28;20534;-76
2022/03/14 04:42:49;;;;;;;10.88;4.60;;;9.70;99.90;;;;;;5011815;28;20077;-75
2022/03/14 04:45:15;;;;;;;10.40;4.38;;;9.70;99.90;;;;;;5011649;28;20128;-75
2022/03/14 04:47:41;;;;;;;11.70;5.00;;;9.70;99.90;;;;;;5011634;28;20137;-74
2022/03/14 04:50:07;;;;;;;14.43;5.35;;;9.60;99.90;;;;;;5011732;28;20046;-74
2022/03/14 04:52:33;;;;;;;11.10;5.18;;;9.70;99.90;;;;;;5013096;28;20053;-78
2022/03/14 04:54:59;;;;;;;10.98;4.95;;;9.60;99.90;;;;;;5027964;28;20076;-74
2022/03/14 04:57:25;;;;;;;12.37;5.50;;;9.60;99.90;;;;;;5012910;28;20042;-75
2022/03/14 04:59:51;;;;;;;13.25;5.45;;;9.60;99.90;;;;;;5011350;28;20304;-75
2022/03/14 05:02:22;;;;;;;16.33;6.88;;;9.60;99.90;;;;;;5011635;28;20068;-77
2022/03/14 05:04:49;;;;;;;18.08;7.07;;;9.50;99.90;;;;;;5011561;28;20062;-75
2022/03/14 05:07:15;;;;;;;13.83;5.67;;;9.50;99.90;;;;;;5012786;28;20124;-76
2022/03/14 05:09:40;;;;;;;15.95;5.18;;;9.50;99.90;;;;;;5012527;28;20045;-75
2022/03/14 05:12:07;;;;;;;12.80;5.28;;;9.50;99.90;;;;;;5012771;28;20042;-76
2022/03/14 05:14:34;;;;;;;13.10;5.43;;;9.40;99.90;;;;;;5027796;28;20164;-75
2022/03/14 05:17:00;;;;;;;12.73;5.65;;;9.40;99.90;;;;;;4995335;28;20050;-76
2022/03/14 05:19:26;;;;;;;11.45;5.15;;;9.40;99.90;;;;;;4995290;28;20042;-76
2022/03/14 05:21:52;;;;;;;11.88;5.28;;;9.30;99.90;;;;;;5011431;28;20057;-76
2022/03/14 05:24:17;;;;;;;13.85;5.82;;;9.30;99.90;;;;;;5010914;28;20053;-76
2022/03/14 05:26:43;;;;;;;11.98;5.18;;;9.30;99.90;;;;;;5011323;28;20077;-75
2022/03/14 05:29:12;;;;;;;14.68;5.22;;;9.30;99.90;;;;;;4978714;28;20482;-79
2022/03/14 05:31:38;;;;;;;11.57;5.00;;;9.20;99.90;;;;;;5011237;28;20053;-80
2022/03/14 05:34:04;;;;;;;13.38;5.82;;;9.20;99.90;;;;;;5012028;28;20137;-80
2022/03/14 05:36:30;;;;;;;12.38;5.43;;;9.20;99.90;;;;;;4962436;28;20137;-77
2022/03/14 05:38:56;;;;;;;11.70;4.88;;;9.20;99.90;;;;;;5010913;28;20054;-76
2022/03/14 05:41:21;;;;;;;10.60;5.20;;;9.10;99.90;;;;;;4995139;28;20050;-76
2022/03/14 05:43:47;;;;;;;13.68;5.28;;;9.10;99.90;;;;;;4994883;28;20477;-77
2022/03/14 05:46:13;;;;;;;11.52;5.30;;;9.10;99.90;;;;;;5011181;28;20152;-75
2022/03/14 05:48:38;;;;;;;13.57;5.65;;;9.10;99.90;;;;;;5014356;28;20049;-77
2022/03/14 05:51:07;;;;;;;12.27;5.10;;;9.10;99.90;;;;;;4982442;28;20121;-76
2022/03/14 05:53:34;;;;;;;12.05;5.38;;;9.00;99.90;;;;;;5015140;28;20092;-76
2022/03/14 05:56:00;;;;;;;15.52;6.22;;;9.00;99.90;;;;;;4998723;28;20220;-76
2022/03/14 05:58:26;;;;;;;12.85;5.35;;;9.00;99.90;;;;;;5015063;28;20058;-77
2022/03/14 06:00:52;;;;;;;12.27;5.35;;;9.00;99.90;;;;;;4998327;28;20077;-75
2022/03/14 06:03:22;;;;;;;13.75;6.20;;;9.00;99.90;;;;;;4998978;28;20164;-77
2022/03/14 06:05:48;;;;;;;12.73;5.57;;;9.00;99.90;;;;;;5015190;28;20128;-77
2022/03/14 06:08:15;;;;;;;14.45;6.03;;;9.00;99.90;;;;;;5014626;28;20056;-75
2022/03/14 06:10:41;;;;;;;16.17;6.43;;;9.00;99.90;;;;;;4998173;28;20125;-76
2022/03/14 06:13:07;;;;;;;15.35;6.30;;;9.00;99.90;;;;;;5014494;28;20050;-79
2022/03/14 06:15:33;;;;;;;16.05;6.28;;;8.90;99.90;;;;;;4998018;28;20514;-76
2022/03/14 06:17:59;;;;;;;15.27;6.57;;;8.90;99.90;;;;;;4982225;28;20046;-76
2022/03/14 06:20:25;;;;;;;16.63;6.80;;;8.90;99.90;;;;;;5014110;28;20080;-77
2022/03/14 06:22:50;;;;;;;13.90;5.97;;;9.00;99.90;;;;;;4997780;28;20398;-76
2022/03/14 06:25:17;;;;;;;15.38;6.22;;;8.90;99.90;;;;;;4981986;28;20050;-76
2022/03/14 06:27:43;;;;;;;16.17;6.70;;;8.90;99.90;;;;;;5014308;28;20056;-75
2022/03/14 06:30:09;;;;;;;19.25;7.00;;;8.90;99.90;;;;;;4998207;28;20042;-77
2022/03/14 06:32:37;;;;;;;18.50;7.20;;;8.90;99.90;;;;;;5014045;28;20050;-76
2022/03/14 06:35:06;;;;;;;;;;;8.90;99.90;;;;;;5015688;28;20129;-75
2022/03/14 06:37:32;;;;;;;16.85;6.95;;;8.90;99.90;;;;;;5013965;28;20388;-75
2022/03/14 06:39:59;;;;;;;14.45;6.25;;;8.90;99.90;;;;;;5013817;28;20049;-75
2022/03/14 06:42:25;;;;;;;16.23;7.33;;;8.90;99.90;;;;;;5014187;28;20081;-77
2022/03/14 06:44:51;;;;;;;16.30;7.33;;;8.90;99.90;;;;;;5013994;28;20331;-77
2022/03/14 06:47:17;;;;;;;16.60;6.90;;;8.90;99.90;;;;;;5014454;28;20050;-76
2022/03/14 06:49:45;;;;;;;14.68;6.40;;;8.90;99.90;;;;;;4997632;28;20050;-77
2022/03/14 06:52:15;;;;;;;18.58;7.70;;;8.90;99.90;;;;;;5014106;28;20072;-76
2022/03/14 06:54:41;;;;;;;18.08;6.63;;;8.90;99.90;;;;;;5013770;28;20500;-76
2022/03/14 06:57:09;;;;;;;16.27;7.35;;;8.90;99.90;;;;;;5013819;28;20049;-76
2022/03/14 06:59:35;;;;;;;;;;;8.90;99.90;;;;;;5012767;28;20350;-76
2022/03/14 07:02:01;;;;;;;15.25;5.68;;;8.90;99.90;;;;;;5015383;28;19987;-76
2022/03/14 07:04:27;;;;;;;14.98;6.65;;;9.00;99.90;;;;;;5014090;28;20058;-79
2022/03/14 07:06:53;;;;;;;18.15;7.75;;;9.00;99.90;;;;;;5013383;28;20050;-78
2022/03/14 07:09:19;;;;;;;17.38;7.65;;;9.00;99.90;;;;;;4997490;28;20339;-75
2022/03/14 07:11:45;;;;;;;17.13;7.63;;;9.10;99.90;;;;;;5013532;28;20046;-76
2022/03/14 07:14:11;;;;;;;18.60;8.30;;;9.10;99.90;;;;;;4997240;28;20053;-75
2022/03/14 07:16:37;;;;;;;19.80;7.10;;;9.10;99.90;;;;;;4998143;28;20085;-75
2022/03/14 07:19:03;;;;;;;16.27;7.25;;;9.10;99.90;;;;;;5013067;28;20128;-75
2022/03/14 07:21:28;;;;;;;18.30;7.53;;;9.20;99.90;;;;;;5013277;28;20054;-79
2022/03/14 07:23:57;;;;;;;21.85;8.10;;;9.10;99.90;;;;;;5014102;28;20046;-79
2022/03/14 07:26:24;;;;;;;21.38;8.07;;;9.10;99.90;;;;;;5012740;28;20057;-77
2022/03/14 07:28:50;;;;;;;19.08;8.25;;;9.10;99.90;;;;;;4996756;28;20050;-77
2022/03/14 07:31:18;;;;;;;20.63;8.52;;;9.20;99.90;;;;;;5013500;28;20046;-76
2022/03/14 07:33:43;;;;;;;18.83;8.00;;;9.20;99.90;;;;;;5013705;28;20085;-77
2022/03/14 07:36:11;;;;;;;18.60;8.15;;;9.20;99.90;;;;;;4996523;28;20108;-75
2022/03/14 07:38:37;;;;;;;19.08;8.45;;;9.20;99.90;;;;;;5029448;28;20050;-76
2022/03/14 07:41:03;;;;;;;23.25;8.05;;;9.20;99.90;;;;;;5029196;28;20122;-76
2022/03/14 07:43:29;;;;;;;19.17;8.20;;;9.20;99.90;;;;;;4997035;28;20049;-76
2022/03/14 07:45:55;;;;;;;21.80;8.85;;;9.20;99.90;;;;;;4996427;28;20500;-79
2022/03/14 07:48:20;;;;;;;22.23;9.10;;;9.20;99.90;;;;;;5013575;28;20116;-77
2022/03/14 07:50:46;;;;;;;18.55;8.50;;;9.20;99.90;;;;;;5012946;28;20124;-77
2022/03/14 07:53:13;;;;;;;21.42;9.75;;;9.10;99.90;;;;;;5013185;28;20141;-78
2022/03/14 07:55:38;;;;;;;22.33;8.65;;;9.20;99.90;;;;;;5013696;28;20141;-76
2022/03/14 07:58:04;;;;;;;20.92;9.45;;;9.10;99.90;;;;;;5029439;28;20482;-75
2022/03/14 08:00:30;;;;;;;23.27;9.07;;;9.10;99.90;;;;;;5014227;28;20052;-76
2022/03/14 08:02:56;;;;;;;22.83;9.73;;;9.10;99.90;;;;;;5012597;28;20038;-78
2022/03/14 08:05:26;;;;;;;24.02;9.93;;;9.10;99.90;;;;;;5012313;28;20482;-76
2022/03/14 08:07:53;;;;;;;22.48;9.95;;;9.20;99.90;;;;;;5013375;28;20084;-77
2022/03/14 08:10:19;;;;;;;25.38;9.88;;;9.20;99.90;;;;;;5012978;28;20078;-77
2022/03/14 08:12:49;;;;;;;24.05;9.63;;;9.30;99.90;;;;;;5013001;28;20053;-77
2022/03/14 08:15:32;;;;;;;22.33;9.90;;;9.30;99.90;;;;;;4996326;28;20042;-77
2022/03/14 08:18:07;;;;;;;21.67;9.68;;;9.30;99.90;;;;;;4996873;28;20120;-76
2022/03/14 08:20:33;;;;;;;23.67;9.52;;;9.30;99.90;;;;;;5012781;28;20342;-77
2022/03/14 08:23:02;;;;;;;26.33;10.98;;;9.30;99.90;;;;;;5013518;28;20062;-82
2022/03/14 08:25:29;;;;;;;27.02;11.63;;;9.20;99.90;;;;;;4995894;28;20520;-79
2022/03/14 08:27:55;;;;;;;27.38;11.25;;;9.20;99.90;;;;;;4995597;28;20398;-77
2022/03/14 08:30:21;;;;;;;33.90;12.05;;;9.10;99.90;;;;;;5013312;28;20113;-77
2022/03/14 08:32:47;;;;;;;35.00;14.38;;;9.10;99.90;;;;;;5012819;28;20058;-76
2022/03/14 08:35:17;;;;;;;39.50;14.57;;;9.10;99.90;;;;;;5012863;28;20127;-75
2022/03/14 08:37:45;;;;;;;39.13;14.70;;;9.00;99.90;;;;;;4995514;28;20057;-78
2022/03/14 08:40:14;;;;;;;41.10;14.55;;;9.00;99.90;;;;;;5011903;28;20041;-76
2022/03/14 08:42:41;;;;;;;39.25;14.15;;;9.00;99.90;;;;;;4995912;28;20053;-79
2022/03/14 08:45:08;;;;;;;46.67;17.75;;;9.00;99.90;;;;;;4995340;28;20053;-76
2022/03/14 08:47:35;;;;;;;43.65;16.38;;;9.00;99.90;;;;;;4995487;28;20056;-75
2022/03/14 08:50:04;;;;;;;41.40;15.50;;;9.00;99.90;;;;;;5011857;28;20085;-75
2022/03/14 08:52:31;;;;;;;45.58;16.70;;;9.00;99.90;;;;;;5011604;28;20133;-75
2022/03/14 08:54:58;;;;;;;42.55;16.45;;;9.00;99.90;;;;;;5011644;28;20131;-75
2022/03/14 08:57:23;;;;;;;43.65;16.27;;;9.00;99.90;;;;;;4995630;28;20441;-77
2022/03/14 08:59:50;;;;;;;45.70;15.48;;;9.00;99.90;;;;;;4995056;28;20042;-76
2022/03/14 09:02:15;;;;;;;46.13;16.00;;;9.10;99.90;;;;;;4995493;28;20054;-75
2022/03/14 09:04:41;;;;;;;38.67;14.18;;;9.10;99.90;;;;;;4995370;28;20169;-75
2022/03/14 09:07:08;;;;;;;38.17;14.05;;;9.10;99.90;;;;;;4995335;28;20164;-82
2022/03/14 09:09:34;;;;;;;37.17;13.38;;;9.00;99.90;;;;;;4995266;28;20066;-79
2022/03/14 09:12:01;;;;;;;36.90;14.93;;;9.00;99.90;;;;;;5011414;28;20115;-77
2022/03/14 09:14:26;;;;;;;36.25;12.57;;;9.00;99.90;;;;;;5011286;28;20050;-75
2022/03/14 09:16:53;;;;;;;40.33;15.20;;;9.00;99.90;;;;;;4995426;28;20046;-76
2022/03/14 09:19:18;;;;;;;44.17;13.80;;;9.00;99.90;;;;;;5012305;28;20145;-75
2022/03/14 09:21:46;;;;;;;38.28;13.68;;;9.00;99.90;;;;;;4995954;28;20133;-77
2022/03/14 09:24:11;;;;;;;;;;;9.00;99.90;;;;;;5015892;28;20096;-75
2022/03/14 09:26:38;;;;;;;41.03;13.10;;;9.10;99.90;;;;;;5015401;28;19926;-76
2022/03/14 09:29:04;;;;;;;37.77;13.13;;;9.20;99.90;;;;;;5015586;28;20505;-76
2022/03/14 09:31:30;;;;;;;41.38;15.10;;;9.20;99.90;;;;;;5015825;28;20180;-75
2022/03/14 09:33:57;;;;;;;37.10;13.40;;;9.30;99.90;;;;;;4998821;28;20427;-80
2022/03/14 09:36:23;;;;;;;38.63;13.38;;;9.30;99.90;;;;;;4998716;28;20405;-76
2022/03/14 09:38:49;;;;;;;40.00;13.40;;;9.40;99.90;;;;;;4999289;28;20405;-76
2022/03/14 09:41:19;;;;;;;40.30;13.40;;;9.30;99.90;;;;;;4983316;28;20046;-76
2022/03/14 09:43:46;;;;;;;36.35;12.52;;;9.30;99.90;;;;;;5016098;28;20049;-74
2022/03/14 09:46:12;;;;;;;;;;;9.30;99.90;;;;;;5017785;28;20046;-77
2022/03/14 09:48:42;;;;;;;32.77;10.70;;;9.30;99.90;;;;;;5000842;28;20281;-76
2022/03/14 09:51:08;;;;;;;38.17;11.25;;;9.30;99.90;;;;;;5017216;28;20101;-84
2022/03/14 09:53:35;;;;;;;35.58;10.07;;;9.30;99.90;;;;;;4999207;28;20046;-77
2022/03/14 09:56:01;;;;;;;27.42;10.48;;;9.30;99.90;;;;;;5015335;28;20486;-77
2022/03/14 09:58:27;;;;;;;28.10;9.85;;;9.40;99.90;;;;;;4998991;28;20061;-76
2022/03/14 10:00:53;;;;;;;27.38;7.80;;;9.40;99.90;;;;;;5015255;28;20046;-75
2022/03/14 10:03:21;;;;;;;33.70;8.80;;;9.50;99.90;;;;;;4998704;28;20054;-76
2022/03/14 10:05:47;;;;;;;25.17;8.63;;;9.60;99.90;;;;;;5015863;28;20111;-75
2022/03/14 10:08:14;;;;;;;27.17;7.13;;;9.50;99.90;;;;;;5015666;28;20046;-76
2022/03/14 10:10:42;;;;;;;24.35;6.85;;;9.50;99.90;;;;;;5015426;28;20050;-75
2022/03/14 10:13:10;;;;;;;23.10;6.30;;;9.60;99.90;;;;;;5016483;28;20062;-75
2022/03/14 10:15:38;;;;;;;19.17;6.13;;;9.60;99.90;;;;;;5014514;28;20053;-76
2022/03/14 10:18:12;;;;;;;25.05;6.63;;;9.60;99.90;;;;;;5015596;28;20057;-75
2022/03/14 10:20:55;;;;;;;21.23;5.93;;;9.70;99.90;;;;;;5014266;28;20212;-75
2022/03/14 10:23:33;;;;;;;22.55;6.20;;;9.70;99.90;;;;;;5015223;28;20045;-79
2022/03/14 10:26:00;;;;;;;27.23;6.10;;;9.60;99.90;;;;;;5014793;28;20053;-76
2022/03/14 10:28:35;;;;;;;18.52;5.80;;;9.70;99.90;;;;;;5015302;28;20050;-76
2022/03/14 10:31:02;;;;;;;22.13;6.03;;;9.80;99.90;;;;;;5014072;28;20057;-75
2022/03/14 10:33:32;;;;;;;21.50;4.93;;;10.00;99.90;;;;;;5013993;28;20057;-76
2022/03/14 10:35:59;;;;;;;17.98;4.70;;;10.10;99.90;;;;;;5014277;28;20073;-75
2022/03/14 10:38:26;;;;;;;22.52;5.55;;;10.20;99.90;;;;;;5013745;28;20061;-74
2022/03/14 10:40:56;;;;;;;25.00;4.90;;;10.30;99.90;;;;;;5013877;28;20081;-75
2022/03/14 10:43:31;;;;;;;17.98;4.68;;;10.40;99.90;;;;;;5014003;28;20042;-75
2022/03/14 10:45:58;;;;;;;21.35;4.57;;;10.50;99.90;;;;;;5013937;28;20058;-75
2022/03/14 10:48:38;;;;;;;22.95;4.78;;;10.50;99.90;;;;;;5013854;28;20053;-77
2022/03/14 10:51:07;;;;;;;19.30;4.57;;;10.50;99.90;;;;;;5013617;28;20060;-76
2022/03/14 10:53:34;;;;;;;15.43;4.45;;;10.60;99.90;;;;;;5013666;28;20131;-76
2022/03/14 10:56:01;;;;;;;23.25;4.78;;;10.60;99.90;;;;;;5013745;28;20050;-75
2022/03/14 10:58:33;;;;;;;18.95;3.95;;;10.80;99.90;;;;;;4997344;28;20054;-76
2022/03/14 11:01:10;;;;;;;18.50;4.10;;;10.80;99.90;;;;;;5013294;28;20053;-76
2022/03/14 11:03:39;;;;;;;15.93;4.10;;;11.00;99.90;;;;;;5030129;28;20191;-77
2022/03/14 11:06:13;;;;;;;25.48;5.07;;;11.10;99.90;;;;;;5013861;28;20057;-79
2022/03/14 11:08:47;;;;;;;20.30;3.83;;;11.20;99.90;;;;;;5013382;28;20064;-77
2022/03/14 11:11:17;;;;;;;20.40;4.97;;;11.20;99.90;;;;;;5012991;28;20072;-79
2022/03/14 11:13:47;;;;;;;18.70;5.03;;;11.30;99.90;;;;;;5013336;28;20085;-76
2022/03/14 11:16:20;;;;;;;24.88;5.22;;;11.40;99.90;;;;;;5013847;28;20149;-76
2022/03/14 11:18:48;;;;;;;20.75;5.00;;;11.50;99.90;;;;;;5014742;28;20613;-80
2022/03/14 11:21:14;;;;;;;;;;;11.50;99.90;;;;;;5014368;28;20071;-75
2022/03/14 11:23:43;;;;;;;19.58;5.10;;;11.40;99.90;;;;;;5013316;28;19928;-77
2022/03/14 11:26:11;;;;;;;19.48;5.00;;;11.30;99.90;;;;;;5014275;28;20045;-76
2022/03/14 11:28:39;;;;;;;15.93;5.78;;;11.30;99.90;;;;;;5012989;28;20136;-76
2022/03/14 11:31:06;;;;;;;22.80;6.90;;;11.10;99.90;;;;;;5012694;28;20041;-75
2022/03/14 11:33:33;;;;;;;24.63;6.55;;;11.10;99.90;;;;;;5012886;28;20053;-76
2022/03/14 11:36:00;;;;;;;26.65;8.48;;;11.20;99.90;;;;;;4996024;28;20058;-75
2022/03/14 11:38:28;;;;;;;26.17;8.15;;;11.20;99.90;;;;;;4996755;28;20049;-76
2022/03/14 11:40:54;;;;;;;24.17;10.43;;;11.20;99.90;;;;;;5012973;28;20077;-76
2022/03/14 11:43:20;;;;;;;30.80;10.65;;;11.30;99.90;;;;;;5013085;28;20050;-77
2022/03/14 11:45:47;;;;;;;32.53;11.33;;;11.30;99.90;;;;;;5012801;28;20327;-76
2022/03/14 11:48:14;;;;;;;37.47;11.85;;;11.30;99.90;;;;;;4996528;28;20293;-75
2022/03/14 11:50:44;;;;;;;35.08;14.07;;;11.40;99.90;;;;;;4997106;28;20407;-75
2022/03/14 11:53:16;;;;;;;32.13;13.15;;;11.20;99.90;;;;;;5012993;28;20050;-77
2022/03/14 11:55:55;;;;;;;33.25;13.15;;;11.30;99.90;;;;;;4997027;28;20050;-75
2022/03/14 11:58:38;;;;;;;35.22;13.25;;;11.40;99.90;;;;;;5012620;28;20054;-81
2022/03/14 12:01:23;;;;;;;34.45;12.80;;;11.60;99.90;;;;;;5012173;28;20458;-74
2022/03/14 12:03:55;;;;;;;37.33;13.32;;;11.60;99.90;;;;;;4996131;28;20046;-76
2022/03/14 12:06:45;;;;;;;36.38;14.10;;;11.70;99.90;;;;;;5014122;28;20045;-81
2022/03/14 12:09:33;;;;;;;39.67;14.57;;;12.00;99.90;;;;;;5012509;28;20095;-78
2022/03/14 12:12:05;;;;;;;33.70;14.80;;;12.20;99.90;;;;;;4995918;28;20060;-77
2022/03/14 12:14:44;;;;;;;39.15;15.57;;;12.20;99.90;;;;;;5012493;28;20038;-77
2022/03/14 12:17:13;;;;;;;36.78;15.32;;;12.20;99.90;;;;;;5013461;28;20057;-76
2022/03/14 12:19:52;;;;;;;35.03;15.60;;;12.30;99.90;;;;;;5012506;28;20042;-76
2022/03/14 12:22:27;;;;;;;37.97;15.95;;;12.40;99.90;;;;;;5012817;28;20172;-78
2022/03/14 12:24:53;;;;;;;40.03;16.50;;;12.50;99.90;;;;;;4996358;28;20053;-77
2022/03/14 12:27:22;;;;;;;50.05;18.58;;;12.50;99.90;;;;;;5012146;28;20402;-79
2022/03/14 12:29:52;;;;;;;42.75;16.35;;;12.60;99.90;;;;;;5013419;28;20092;-77
2022/03/14 12:32:37;;;;;;;43.85;17.88;;;12.70;99.90;;;;;;5013027;28;20049;-80
2022/03/14 12:35:06;;;;;;;40.92;16.80;;;12.80;99.90;;;;;;4996585;28;20063;-78
2022/03/14 12:37:38;;;;;;;44.53;17.20;;;12.90;99.90;;;;;;5012726;28;20099;-78
2022/03/14 12:40:12;;;;;;;46.67;15.93;;;12.90;99.90;;;;;;5012000;28;20115;-79
2022/03/14 12:42:40;;;;;;;41.35;15.32;;;13.10;99.90;;;;;;5012911;28;20080;-79
2022/03/14 12:45:40;;;;;;;41.53;15.88;;;13.20;99.90;;;;;;4995921;28;20054;-76
2022/03/14 12:48:21;;;;;;;38.70;16.08;;;13.10;99.90;;;;;;5013068;28;20053;-78